Wetterstation Vordersexau
Wetterdaten: August 2014
Datum Temp. A. Feuchte A. Luftdruck Regen Wind Richtung Taupunkt Windchill Windben
01.08.2014 23,7 C 67 % 981,4 hPa 0,0 l/m 1,2 km/h O-NO 16,4 C 23,7 C 0,7 km/h
02.08.2014 22,1 C 72 % 979,5 hPa 0,2 l/m 2,1 km/h SO 16,4 C 22,0 C 1,2 km/h
03.08.2014 20,2 C 77 % 983,0 hPa 0,0 l/m 2,8 km/h O-SO 15,9 C 20,0 C 1,5 km/h
04.08.2014 21,1 C 69 % 986,8 hPa 0,0 l/m 0,7 km/h SO 14,7 C 21,1 C 0,5 km/h
05.08.2014 21,3 C 67 % 989,9 hPa 0,0 l/m 1,3 km/h SO 14,1 C 21,3 C 0,8 km/h
06.08.2014 19,8 C 69 % 988,1 hPa 0,0 l/m 0,1 km/h W 13,4 C 19,8 C 0,1 km/h
07.08.2014 21,5 C 72 % 986,1 hPa 0,0 l/m 1,8 km/h O 15,8 C 21,3 C 1,0 km/h
08.08.2014 23,5 C 66 % 983,7 hPa 0,0 l/m 2,0 km/h O-SO 15,9 C 23,4 C 1,1 km/h
09.08.2014 23,2 C 68 % 983,5 hPa 0,4 l/m 6,2 km/h S-SW 16,3 C 22,6 C 3,8 km/h
10.08.2014 23,2 C 71 % 981,2 hPa 2,7 l/m 1,0 km/h W 17,3 C 23,2 C 0,6 km/h
11.08.2014 19,7 C 71 % 985,9 hPa 0,0 l/m 8,2 km/h SW 14,0 C 18,7 C 4,8 km/h
12.08.2014 20,2 C 61 % 985,6 hPa 0,0 l/m 8,1 km/h W-SW 12,0 C 19,4 C 4,6 km/h
13.08.2014 15,1 C 79 % 979,1 hPa 4,1 l/m 8,4 km/h SO 11,5 C 13,5 C 5,1 km/h
14.08.2014 17,7 C 70 % 984,7 hPa 0,0 l/m 12,0 km/h S-SW 11,9 C 15,8 C 7,1 km/h
15.08.2014 15,6 C 78 % 986,0 hPa 3,1 l/m 6,1 km/h SW 11,7 C 14,6 C 3,8 km/h
16.08.2014 17,0 C 71 % 991,3 hPa 0,2 l/m 1,1 km/h N-NW 11,2 C 17,0 C 0,6 km/h
17.08.2014 17,3 C 66 % 987,9 hPa 0,0 l/m 9,7 km/h SO 10,4 C 16,1 C 5,6 km/h
18.08.2014 17,2 C 69 % 983,0 hPa 0,0 l/m 10,2 km/h W 11,3 C 15,2 C 5,9 km/h
19.08.2014 18,3 C 64 % 984,0 hPa 0,0 l/m 6,2 km/h SO 10,7 C 17,5 C 3,5 km/h
20.08.2014 16,6 C 65 % 987,3 hPa 0,0 l/m 1,3 km/h N-NO 9,3 C 16,4 C 0,7 km/h
21.08.2014 17,7 C 62 % 988,1 hPa 0,0 l/m 1,6 km/h O-NO 9,2 C 17,6 C 0,9 km/h
22.08.2014 17,0 C 63 % 986,5 hPa 0,0 l/m 5,9 km/h SO 9,3 C 16,3 C 3,3 km/h
23.08.2014 15,6 C 72 % 986,8 hPa 0,4 l/m 4,9 km/h SO 10,2 C 14,9 C 2,7 km/h
24.08.2014 15,5 C 69 % 990,7 hPa 0,4 l/m 2,5 km/h SO 9,1 C 15,1 C 1,4 km/h
25.08.2014 14,7 C 72 % 987,3 hPa 0,0 l/m 1,4 km/h SO 9,2 C 14,6 C 0,8 km/h
26.08.2014 17,8 C 79 % 979,0 hPa 2,9 l/m 13,8 km/h W-SW 13,9 C 15,3 C 7,9 km/h
27.08.2014 18,2 C 76 % 985,5 hPa 2,1 l/m 1,0 km/h N-NO 13,7 C 18,1 C 0,6 km/h
28.08.2014 20,9 C 67 % 987,9 hPa 0,0 l/m 2,6 km/h SO 13,8 C 20,8 C 1,4 km/h
29.08.2014 19,2 C 80 % 988,1 hPa 1,0 l/m 0,9 km/h SO 15,6 C 19,2 C 0,5 km/h
30.08.2014 16,4 C 82 % 990,2 hPa 0,0 l/m 0,0 km/h O-NO 13,3 C 16,4 C 0,0 km/h
Min-Datum 24.08.14 21.08.14 13.08.14 11 Tage 01.08.14 - 24.08.14 13.08.14 01.08.14
Min-Zeit 06:19 17:19 09:19 - 00:19 - 06:19 18:19 00:19
Minimum 7,6 C 30 % 975,6 hPa - 0,0 km/h - 5,4 C 6,7 C 0,0 km/h
Max-Datum 08.08.14 01.08.14 16.08.14 13.08.14 13.08.14 - 10.08.14 08.08.14 13.08.14
Max-Zeit 18:19 01:19 21:19 11:19 18:19 - 11:19 18:19 18:19
Maximum 35,6 C 86 % 992,4 hPa 4,1 l/m 48,6 km/h
SO
- 22,2 C 35,6 C 27,0 km/h
SO
Durchschnitt 18,9 C 71 % 985,6 hPa #17,6 l/m 4,2 km/h SO 12,9 C 18,4 C 2,4 km/h

Durchschnitt Minimum Temp.12,8 C
Durchschnitt Maximum Temp.28,1 C
www.sexauwetter.de